createdAt,value
2022-10-14T00:02:43.024Z,98550.41
2022-10-14T00:05:48.727Z,98553.84
2022-10-14T00:08:58.292Z,98546.88
2022-10-14T00:12:03.879Z,98554.06
2022-10-14T00:15:11.557Z,98555.00
2022-10-14T00:18:17.165Z,98546.44
2022-10-14T00:21:24.760Z,98547.38
2022-10-14T00:24:33.187Z,98542.28
2022-10-14T00:27:39.688Z,98547.59
2022-10-14T00:30:57.470Z,98536.44
2022-10-14T00:34:04.160Z,98536.59
2022-10-14T00:37:09.810Z,98544.53
2022-10-14T00:40:19.181Z,98546.31
2022-10-14T00:43:25.872Z,98544.63
2022-10-14T00:46:34.319Z,98548.00
2022-10-14T00:49:44.347Z,98547.09
2022-10-14T00:52:53.399Z,98530.50
2022-10-14T00:56:03.220Z,98523.34
2022-10-14T00:59:10.473Z,98530.19
2022-10-14T01:02:16.432Z,98523.16
2022-10-14T01:05:23.865Z,98519.78
2022-10-14T01:08:38.765Z,98517.41
2022-10-14T01:12:09.865Z,98520.28
2022-10-14T01:15:28.385Z,98518.66
2022-10-14T01:18:49.681Z,98517.81
2022-10-14T01:22:03.618Z,98517.19
2022-10-14T01:25:22.134Z,98521.06
2022-10-14T01:28:46.782Z,98518.75
2022-10-14T01:32:06.245Z,98525.84
2022-10-14T01:35:22.713Z,98516.38
2022-10-14T01:38:33.902Z,98517.19
2022-10-14T01:41:45.904Z,98510.13
2022-10-14T01:44:56.497Z,98504.75
2022-10-14T01:48:07.818Z,98507.13
2022-10-14T01:51:18.164Z,98501.72
2022-10-14T01:54:38.166Z,98499.63
2022-10-14T01:57:45.806Z,98498.63
2022-10-14T02:00:54.246Z,98493.97
2022-10-14T02:04:03.528Z,98501.59
2022-10-14T02:07:13.563Z,98491.91
2022-10-14T02:10:39.702Z,98490.94
2022-10-14T02:14:03.798Z,98488.34
2022-10-14T02:17:14.662Z,98485.66
2022-10-14T02:20:32.207Z,98482.88
2022-10-14T02:23:42.636Z,98480.16
2022-10-14T02:26:51.661Z,98478.13
2022-10-14T02:29:59.919Z,98479.06
2022-10-14T02:33:10.500Z,98478.03
2022-10-14T02:36:23.120Z,98474.41
2022-10-14T02:39:34.238Z,98468.16
2022-10-14T02:42:39.998Z,98467.34
2022-10-14T02:45:47.304Z,98468.34
2022-10-14T02:48:53.439Z,98466.53
2022-10-14T02:52:03.812Z,98463.16
2022-10-14T02:55:10.763Z,98458.88
2022-10-14T02:58:17.789Z,98465.88
2022-10-14T03:01:23.761Z,98465.19
2022-10-14T03:04:30.610Z,98462.72
2022-10-14T03:07:39.370Z,98462.06
2022-10-14T03:10:50.337Z,98470.75
2022-10-14T03:13:56.204Z,98462.22
2022-10-14T03:17:04.423Z,98458.00
2022-10-14T03:20:13.463Z,98465.75
2022-10-14T03:23:29.520Z,98460.53
2022-10-14T03:26:35.244Z,98464.16
2022-10-14T03:29:41.807Z,98458.16
2022-10-14T03:32:56.864Z,98466.94
2022-10-14T03:36:23.315Z,98464.41
2022-10-14T03:39:35.018Z,98465.31
2022-10-14T03:42:44.936Z,98458.31
2022-10-14T03:45:51.130Z,98458.31
2022-10-14T03:49:00.561Z,98458.91
2022-10-14T03:52:08.401Z,98459.59
2022-10-14T03:55:19.850Z,98454.09
2022-10-14T03:58:28.360Z,98452.25
2022-10-14T04:01:41.566Z,98448.72
2022-10-14T04:05:00.881Z,98446.09
2022-10-14T04:08:09.208Z,98444.16
2022-10-14T04:11:19.782Z,98454.56
2022-10-14T04:14:29.588Z,98457.25
2022-10-14T04:17:35.494Z,98444.06
2022-10-14T04:20:49.807Z,98446.69
2022-10-14T04:23:59.061Z,98449.22
2022-10-14T04:27:25.660Z,98446.44
2022-10-14T04:30:39.607Z,98444.50
2022-10-14T04:33:49.357Z,98444.19
2022-10-14T04:37:00.876Z,98440.44
2022-10-14T04:40:29.275Z,98445.38
2022-10-14T04:43:39.053Z,98435.47
2022-10-14T04:46:58.895Z,98440.59
2022-10-14T04:50:08.766Z,98445.00
2022-10-14T04:53:21.071Z,98437.91
2022-10-14T04:56:39.504Z,98433.16
2022-10-14T04:59:48.838Z,98426.72
2022-10-14T05:03:14.742Z,98424.88
2022-10-14T05:06:22.123Z,98426.19
2022-10-14T05:09:30.994Z,98431.28
2022-10-14T05:12:39.315Z,98431.28
2022-10-14T05:15:47.955Z,98428.50
2022-10-14T05:18:56.142Z,98421.31
2022-10-14T05:22:03.452Z,98421.03
2022-10-14T05:25:19.142Z,98418.31
2022-10-14T05:28:25.949Z,98421.44
2022-10-14T05:31:37.063Z,98422.03
2022-10-14T05:35:33.951Z,98415.66
2022-10-14T05:38:45.061Z,98425.13
2022-10-14T05:41:50.877Z,98420.72
2022-10-14T05:45:03.259Z,98420.41
2022-10-14T05:48:14.390Z,98423.78
2022-10-14T05:51:21.415Z,98412.25
2022-10-14T05:54:32.853Z,98424.28
2022-10-14T05:57:39.832Z,98423.25
2022-10-14T06:00:45.756Z,98418.66
2022-10-14T06:04:00.412Z,98429.84
2022-10-14T06:07:09.725Z,98423.56
2022-10-14T06:10:16.518Z,98422.34
2022-10-14T06:13:22.374Z,98424.81
2022-10-14T06:16:29.618Z,98428.06
2022-10-14T06:19:38.294Z,98423.50
2022-10-14T06:22:45.824Z,98433.81
2022-10-14T06:25:51.802Z,98426.69
2022-10-14T06:28:58.372Z,98431.47
2022-10-14T06:32:04.027Z,98436.28
2022-10-14T06:35:13.764Z,98437.59
2022-10-14T06:38:19.570Z,98438.16
2022-10-14T06:41:27.186Z,98436.19
2022-10-14T06:44:32.980Z,98434.06
2022-10-14T06:47:39.704Z,98441.34
2022-10-14T06:50:48.343Z,98436.47
2022-10-14T06:53:54.794Z,98433.47
2022-10-14T06:57:00.895Z,98447.19
2022-10-14T07:00:10.440Z,98440.72
2022-10-14T07:03:16.320Z,98449.16
2022-10-14T07:06:25.652Z,98444.56
2022-10-14T07:09:32.588Z,98450.28
2022-10-14T07:12:39.190Z,98448.84
2022-10-14T07:15:45.893Z,98449.31
2022-10-14T07:18:52.792Z,98443.69
2022-10-14T07:22:01.286Z,98451.91
2022-10-14T07:25:10.242Z,98458.47
2022-10-14T07:32:00.972Z,98448.72
2022-10-14T07:35:10.511Z,98444.47
2022-10-14T07:38:19.313Z,98436.25
2022-10-14T07:41:28.188Z,98442.81
2022-10-14T07:44:33.825Z,98438.63
2022-10-14T07:47:40.434Z,98450.03
2022-10-14T07:50:46.124Z,98454.72
2022-10-14T07:53:55.926Z,98450.19
2022-10-14T07:57:03.870Z,98456.09
2022-10-14T08:00:12.103Z,98450.53
2022-10-14T08:03:18.279Z,98450.09
2022-10-14T08:06:25.293Z,98443.56
2022-10-14T08:09:34.064Z,98448.09
2022-10-14T08:12:41.120Z,98439.47
2022-10-14T08:15:46.710Z,98441.34
2022-10-14T08:18:54.220Z,98445.75
2022-10-14T08:22:01.679Z,98440.78
2022-10-14T08:25:12.965Z,98445.53
2022-10-14T08:28:18.799Z,98446.69
2022-10-14T08:31:25.809Z,98440.56
2022-10-14T08:34:31.970Z,98438.47
2022-10-14T08:37:38.470Z,98441.44
2022-10-14T08:41:03.326Z,98442.50
2022-10-14T08:44:18.154Z,98449.44
2022-10-14T08:47:27.832Z,98442.53
2022-10-14T08:50:39.477Z,98439.78
2022-10-14T08:53:49.245Z,98442.00
2022-10-14T08:56:59.268Z,98436.78
2022-10-14T09:00:07.784Z,98441.09
2022-10-14T09:03:21.532Z,98441.19
2022-10-14T09:06:30.778Z,98429.75
2022-10-14T09:09:44.985Z,98425.94
2022-10-14T09:12:55.209Z,98431.16
2022-10-14T09:16:06.952Z,98423.91
2022-10-14T09:19:18.586Z,98431.22
2022-10-14T09:22:26.641Z,98434.38
2022-10-14T09:25:36.045Z,98430.44
2022-10-14T09:28:49.118Z,98441.78
2022-10-14T09:31:56.655Z,98436.25
2022-10-14T09:35:03.815Z,98437.28
2022-10-14T09:38:10.257Z,98444.75
2022-10-14T09:41:19.207Z,98439.03
2022-10-14T09:44:28.846Z,98437.09
2022-10-14T09:47:40.237Z,98439.63
2022-10-14T09:50:51.761Z,98432.06
2022-10-14T09:54:00.223Z,98428.19
2022-10-14T09:57:10.499Z,98431.69
2022-10-14T10:00:33.235Z,98431.09
2022-10-14T10:03:41.295Z,98435.41
2022-10-14T10:06:55.817Z,98424.59
2022-10-14T10:10:05.201Z,98429.16
2022-10-14T10:13:25.330Z,98421.47
2022-10-14T10:16:34.984Z,98420.03
2022-10-14T10:19:43.333Z,98421.69
2022-10-14T10:22:49.186Z,98425.53
2022-10-14T10:25:55.854Z,98425.06
2022-10-14T10:29:03.837Z,98413.75
2022-10-14T10:32:20.350Z,98415.44
2022-10-14T10:35:30.210Z,98415.56
2022-10-14T10:38:43.394Z,98414.97
2022-10-14T10:42:01.104Z,98413.03
2022-10-14T10:45:19.069Z,98409.81
2022-10-14T10:48:37.376Z,98406.53
2022-10-14T10:51:53.566Z,98397.38
2022-10-14T10:55:06.653Z,98395.69
2022-10-14T10:58:28.314Z,98397.84
2022-10-14T11:01:42.448Z,98388.00
2022-10-14T11:04:57.384Z,98399.31
2022-10-14T11:12:13.781Z,98383.09
2022-10-14T11:15:33.714Z,98386.59
2022-10-14T11:18:48.441Z,98385.50
2022-10-14T11:22:06.887Z,98383.00
2022-10-14T11:25:25.747Z,98383.47
2022-10-14T11:28:40.654Z,98382.75
2022-10-14T11:31:54.732Z,98385.41
2022-10-14T11:35:20.448Z,98383.47
2022-10-14T11:38:43.404Z,98380.94
2022-10-14T11:42:05.063Z,98385.41
2022-10-14T11:45:37.884Z,98374.06
2022-10-14T11:48:48.322Z,98374.56
2022-10-14T11:52:00.092Z,98373.13
2022-10-14T11:55:19.452Z,98375.16
2022-10-14T11:58:29.045Z,98374.69
2022-10-14T12:01:38.207Z,98366.50
2022-10-14T12:04:56.544Z,98373.84
2022-10-14T12:08:11.170Z,98369.97
2022-10-14T12:11:30.350Z,98368.78
2022-10-14T12:14:38.535Z,98359.41
2022-10-14T12:17:50.085Z,98360.84
2022-10-14T12:21:05.017Z,98356.25
2022-10-14T12:24:16.375Z,98349.97
2022-10-14T12:27:30.063Z,98345.66
2022-10-14T12:30:42.001Z,98354.78
2022-10-14T12:34:19.160Z,98345.19
2022-10-14T12:41:36.431Z,98341.56
2022-10-14T12:44:53.276Z,98340.84
2022-10-14T12:48:10.348Z,98337.72
2022-10-14T12:51:20.191Z,98329.31
2022-10-14T12:54:27.830Z,98332.66
2022-10-14T12:57:41.534Z,98332.13
2022-10-14T13:00:58.591Z,98333.06
2022-10-14T13:04:10.757Z,98339.75
2022-10-14T13:07:40.428Z,98336.41
2022-10-14T13:10:50.812Z,98337.75
2022-10-14T13:14:04.288Z,98340.53
2022-10-14T13:17:49.058Z,98329.72
2022-10-14T13:20:57.893Z,98337.00
2022-10-14T13:24:09.145Z,98333.84
2022-10-14T13:27:25.670Z,98331.88
2022-10-14T13:30:40.297Z,98335.06
2022-10-14T13:33:55.834Z,98327.78
2022-10-14T13:37:22.798Z,98326.97
2022-10-14T13:40:35.328Z,98316.38
2022-10-14T13:43:45.215Z,98322.53
2022-10-14T13:46:52.938Z,98315.88
2022-10-14T13:50:03.504Z,98315.13
2022-10-14T13:53:17.097Z,98315.38
2022-10-14T13:56:26.214Z,98318.75
2022-10-14T13:59:47.535Z,98310.53
2022-10-14T14:03:21.391Z,98316.28
2022-10-14T14:06:39.861Z,98308.59
2022-10-14T14:10:06.729Z,98309.53
2022-10-14T14:13:16.363Z,98312.09
2022-10-14T14:16:26.202Z,98311.25
2022-10-14T14:19:33.266Z,98309.44
2022-10-14T14:22:45.524Z,98324.16
2022-10-14T14:26:17.903Z,98310.69
2022-10-14T14:29:22.960Z,98317.16
2022-10-14T14:32:33.892Z,98303.88
2022-10-14T14:35:41.377Z,98305.78
2022-10-14T14:38:58.887Z,98305.28
2022-10-14T14:42:07.331Z,98303.63
2022-10-14T14:45:19.755Z,98302.78
2022-10-14T14:48:27.722Z,98303.63
2022-10-14T14:51:38.121Z,98301.09
2022-10-14T14:54:51.322Z,98301.88
2022-10-14T14:58:00.162Z,98307.91
2022-10-14T15:01:10.869Z,98300.84
2022-10-14T15:04:20.704Z,98301.84
2022-10-14T15:07:29.344Z,98300.06
2022-10-14T15:10:37.791Z,98301.41
2022-10-14T15:13:52.445Z,98300.59
2022-10-14T15:16:58.067Z,98304.09
2022-10-14T15:20:31.636Z,98314.22
2022-10-14T15:23:42.137Z,98309.31
2022-10-14T15:26:51.462Z,98317.34
2022-10-14T15:30:36.002Z,98312.06
2022-10-14T15:33:42.794Z,98313.75
2022-10-14T15:36:48.711Z,98311.91
2022-10-14T15:40:08.733Z,98311.53
2022-10-14T15:43:20.527Z,98311.25
2022-10-14T15:46:41.929Z,98308.13
2022-10-14T15:49:47.627Z,98309.03
2022-10-14T15:52:55.281Z,98314.28
2022-10-14T15:56:01.178Z,98306.34
2022-10-14T15:59:11.924Z,98315.91
2022-10-14T16:02:21.166Z,98307.50
2022-10-14T16:05:29.529Z,98312.16
2022-10-14T16:08:35.117Z,98307.31
2022-10-14T16:11:42.284Z,98310.28
2022-10-14T16:14:50.697Z,98308.56
2022-10-14T16:17:57.297Z,98311.34
2022-10-14T16:21:03.598Z,98303.56
2022-10-14T16:24:17.888Z,98310.72
2022-10-14T16:27:24.897Z,98316.09
2022-10-14T16:30:34.799Z,98316.25
2022-10-14T16:33:43.272Z,98320.66
2022-10-14T16:36:54.098Z,98318.97
2022-10-14T16:39:59.924Z,98316.69
2022-10-14T16:43:08.945Z,98316.03
2022-10-14T16:46:18.166Z,98318.19
2022-10-14T16:49:27.282Z,98319.38
2022-10-14T16:52:53.001Z,98315.16
2022-10-14T16:56:00.027Z,98320.53
2022-10-14T16:59:09.969Z,98321.50
2022-10-14T17:02:21.721Z,98318.94
2022-10-14T17:05:28.280Z,98326.84
2022-10-14T17:08:35.049Z,98315.81
2022-10-14T17:11:41.821Z,98322.13
2022-10-14T17:14:48.228Z,98323.41
2022-10-14T17:17:58.316Z,98320.06
2022-10-14T17:21:10.833Z,98328.19
2022-10-14T17:24:17.205Z,98321.44
2022-10-14T17:27:24.421Z,98324.31
2022-10-14T17:30:31.131Z,98317.66
2022-10-14T17:33:41.029Z,98316.09
2022-10-14T17:36:46.658Z,98313.66
2022-10-14T17:39:53.088Z,98321.06
2022-10-14T17:43:00.169Z,98318.75
2022-10-14T17:46:11.898Z,98318.03
2022-10-14T17:49:20.269Z,98320.88
2022-10-14T17:52:26.938Z,98327.19
2022-10-14T17:55:32.905Z,98322.56
2022-10-14T17:58:41.083Z,98314.13
2022-10-14T18:02:04.036Z,98310.72
2022-10-14T18:05:13.896Z,98317.72
2022-10-14T18:08:19.463Z,98318.09
2022-10-14T18:11:39.483Z,98311.13
2022-10-14T18:14:54.259Z,98314.94
2022-10-14T18:18:00.795Z,98310.09
2022-10-14T18:21:11.224Z,98305.03
2022-10-14T18:24:17.690Z,98314.75
2022-10-14T18:27:23.577Z,98312.19
2022-10-14T18:30:30.413Z,98313.16
2022-10-14T18:33:37.524Z,98314.31
2022-10-14T18:36:48.061Z,98312.00
2022-10-14T18:39:53.767Z,98316.81
2022-10-14T18:43:04.254Z,98322.50
2022-10-14T18:46:13.406Z,98323.84
2022-10-14T18:49:21.941Z,98318.47
2022-10-14T18:52:32.199Z,98327.72
2022-10-14T18:55:42.306Z,98326.13
2022-10-14T18:58:50.678Z,98323.72
2022-10-14T19:01:57.256Z,98333.78
2022-10-14T19:05:03.289Z,98323.66
2022-10-14T19:11:21.728Z,98322.19
2022-10-14T19:14:28.870Z,98325.31
2022-10-14T19:17:34.820Z,98317.75
2022-10-14T19:20:41.818Z,98320.75
2022-10-14T19:23:50.281Z,98314.03
2022-10-14T19:26:57.179Z,98315.13
2022-10-14T19:30:03.343Z,98316.06
2022-10-14T19:33:09.857Z,98317.19
2022-10-14T19:36:17.443Z,98313.81
2022-10-14T19:39:26.702Z,98317.56
2022-10-14T19:42:32.249Z,98310.84
2022-10-14T19:45:44.653Z,98312.00
2022-10-14T19:48:52.734Z,98312.25
2022-10-14T19:51:59.188Z,98311.63
2022-10-14T19:55:11.378Z,98311.09
2022-10-14T19:58:17.856Z,98317.66
2022-10-14T20:01:26.362Z,98317.00
2022-10-14T20:04:33.251Z,98319.91
2022-10-14T20:07:38.824Z,98314.22
2022-10-14T20:10:48.058Z,98314.56
2022-10-14T20:13:54.037Z,98315.63
2022-10-14T20:17:03.613Z,98321.06
2022-10-14T20:20:10.745Z,98314.50
2022-10-14T20:23:17.904Z,98309.59
2022-10-14T20:29:39.019Z,98305.13
2022-10-14T20:32:44.697Z,98315.16
2022-10-14T20:35:51.416Z,98311.31
2022-10-14T20:38:57.301Z,98306.22
2022-10-14T20:42:08.278Z,98308.13
2022-10-14T20:45:14.053Z,98315.41
2022-10-14T20:48:20.467Z,98305.25
2022-10-14T20:51:26.517Z,98307.31
2022-10-14T20:54:33.003Z,98302.22
2022-10-14T20:57:41.598Z,98302.50
2022-10-14T21:00:48.235Z,98300.16
2022-10-14T21:03:55.490Z,98298.75
2022-10-14T21:07:03.568Z,98285.91
2022-10-14T21:10:13.563Z,98291.50
2022-10-14T21:13:22.878Z,98294.41
2022-10-14T21:16:30.567Z,98288.47
2022-10-14T21:19:37.432Z,98285.13
2022-10-14T21:22:43.042Z,98290.69
2022-10-14T21:25:57.651Z,98277.59
2022-10-14T21:29:07.362Z,98277.00
2022-10-14T21:32:13.814Z,98282.44
2022-10-14T21:35:19.592Z,98279.16
2022-10-14T21:38:26.047Z,98280.94
2022-10-14T21:41:32.041Z,98272.31
2022-10-14T21:44:41.523Z,98268.09
2022-10-14T21:47:47.254Z,98273.50
2022-10-14T21:51:04.401Z,98276.19
2022-10-14T21:54:11.171Z,98271.16
2022-10-14T21:57:17.751Z,98276.47
2022-10-14T22:00:26.423Z,98266.25
2022-10-14T22:03:33.654Z,98272.59
2022-10-14T22:06:39.629Z,98264.94
2022-10-14T22:09:46.272Z,98265.84
2022-10-14T22:12:52.106Z,98267.63
2022-10-14T22:16:04.351Z,98260.78
2022-10-14T22:19:10.991Z,98263.56
2022-10-14T22:22:17.417Z,98261.91
2022-10-14T22:25:23.020Z,98258.44
2022-10-14T22:28:30.850Z,98262.91
2022-10-14T22:31:39.500Z,98257.84
2022-10-14T22:34:46.196Z,98258.69
2022-10-14T22:37:51.917Z,98255.28
2022-10-14T22:40:58.705Z,98248.38
2022-10-14T22:44:04.358Z,98253.63
2022-10-14T22:47:13.936Z,98246.69
2022-10-14T22:50:19.731Z,98245.94
2022-10-14T22:53:26.493Z,98247.03
2022-10-14T22:56:33.422Z,98246.38
2022-10-14T22:59:39.883Z,98241.13
2022-10-14T23:02:48.954Z,98241.13
2022-10-14T23:05:55.564Z,98233.34
2022-10-14T23:09:03.547Z,98237.81
2022-10-14T23:12:10.508Z,98236.16
2022-10-14T23:15:16.421Z,98236.91
2022-10-14T23:18:26.124Z,98224.38
2022-10-14T23:21:33.889Z,98225.88
2022-10-14T23:24:40.338Z,98229.09
2022-10-14T23:27:46.068Z,98213.94
2022-10-14T23:30:52.937Z,98224.19
2022-10-14T23:34:06.858Z,98223.00
2022-10-14T23:37:13.395Z,98223.00
2022-10-14T23:40:19.210Z,98222.03
2022-10-14T23:43:25.874Z,98214.19
2022-10-14T23:46:31.931Z,98218.56
2022-10-14T23:49:41.644Z,98219.53
2022-10-14T23:52:47.252Z,98217.94
2022-10-14T23:55:53.748Z,98217.06
2022-10-14T23:59:03.271Z,98224.09
